sensor_id;sensor_type;location;lat;lon;timestamp;P1;durP1;ratioP1;P2;durP2;ratioP2
65279;SDS011;51878;55.748;48.742;2022-11-14T00:01:07;0.45;;;0.45;;
65279;SDS011;51878;55.748;48.742;2022-11-14T00:03:36;0.55;;;0.20;;
65279;SDS011;51878;55.748;48.742;2022-11-14T00:06:06;0.25;;;0.25;;
65279;SDS011;51878;55.748;48.742;2022-11-14T00:08:33;0.20;;;0.20;;
65279;SDS011;51878;55.748;48.742;2022-11-14T00:11:01;0.20;;;0.20;;
65279;SDS011;51878;55.748;48.742;2022-11-14T00:13:28;0.20;;;0.20;;
65279;SDS011;51878;55.748;48.742;2022-11-14T00:15:55;0.10;;;0.10;;
65279;SDS011;51878;55.748;48.742;2022-11-14T00:18:22;0.15;;;0.15;;
65279;SDS011;51878;55.748;48.742;2022-11-14T00:20:50;0.10;;;0.10;;
65279;SDS011;51878;55.748;48.742;2022-11-14T00:23:18;0.20;;;0.20;;
65279;SDS011;51878;55.748;48.742;2022-11-14T00:25:46;0.20;;;0.20;;
65279;SDS011;51878;55.748;48.742;2022-11-14T00:28:14;0.25;;;0.25;;
65279;SDS011;51878;55.748;48.742;2022-11-14T00:30:45;0.20;;;0.20;;
65279;SDS011;51878;55.748;48.742;2022-11-14T00:33:13;0.28;;;0.22;;
65279;SDS011;51878;55.748;48.742;2022-11-14T00:35:49;0.25;;;0.25;;
65279;SDS011;51878;55.748;48.742;2022-11-14T00:38:17;0.20;;;0.20;;
65279;SDS011;51878;55.748;48.742;2022-11-14T00:40:44;0.20;;;0.20;;
65279;SDS011;51878;55.748;48.742;2022-11-14T00:43:11;0.20;;;0.20;;
65279;SDS011;51878;55.748;48.742;2022-11-14T00:45:38;0.30;;;0.30;;
65279;SDS011;51878;55.748;48.742;2022-11-14T00:48:08;0.77;;;0.20;;
65279;SDS011;51878;55.748;48.742;2022-11-14T00:50:35;0.10;;;0.10;;
65279;SDS011;51878;55.748;48.742;2022-11-14T00:53:03;0.85;;;0.20;;
65279;SDS011;51878;55.748;48.742;2022-11-14T00:55:30;0.22;;;0.22;;
65279;SDS011;51878;55.748;48.742;2022-11-14T00:57:57;0.85;;;0.47;;
65279;SDS011;51878;55.748;48.742;2022-11-14T01:00:24;0.38;;;0.20;;
65279;SDS011;51878;55.748;48.742;2022-11-14T01:02:51;0.20;;;0.20;;
65279;SDS011;51878;55.748;48.742;2022-11-14T01:05:25;0.20;;;0.20;;
65279;SDS011;51878;55.748;48.742;2022-11-14T01:07:52;0.15;;;0.15;;
65279;SDS011;51878;55.748;48.742;2022-11-14T01:10:20;0.20;;;0.20;;
65279;SDS011;51878;55.748;48.742;2022-11-14T01:12:47;0.20;;;0.20;;
65279;SDS011;51878;55.748;48.742;2022-11-14T01:15:14;0.20;;;0.20;;
65279;SDS011;51878;55.748;48.742;2022-11-14T01:17:41;0.30;;;0.30;;
65279;SDS011;51878;55.748;48.742;2022-11-14T01:20:08;0.20;;;0.20;;
65279;SDS011;51878;55.748;48.742;2022-11-14T01:22:36;0.30;;;0.30;;
65279;SDS011;51878;55.748;48.742;2022-11-14T01:25:03;0.30;;;0.30;;
65279;SDS011;51878;55.748;48.742;2022-11-14T01:27:30;0.20;;;0.20;;
65279;SDS011;51878;55.748;48.742;2022-11-14T01:29:57;0.20;;;0.20;;
65279;SDS011;51878;55.748;48.742;2022-11-14T01:32:25;0.35;;;0.30;;
65279;SDS011;51878;55.748;48.742;2022-11-14T01:34:52;0.20;;;0.20;;
65279;SDS011;51878;55.748;48.742;2022-11-14T01:37:20;0.30;;;0.30;;
65279;SDS011;51878;55.748;48.742;2022-11-14T01:39:47;0.30;;;0.30;;
65279;SDS011;51878;55.748;48.742;2022-11-14T01:42:14;0.20;;;0.20;;
65279;SDS011;51878;55.748;48.742;2022-11-14T01:44:44;0.32;;;0.32;;
65279;SDS011;51878;55.748;48.742;2022-11-14T01:47:29;0.32;;;0.32;;
65279;SDS011;51878;55.748;48.742;2022-11-14T01:49:59;0.32;;;0.32;;
65279;SDS011;51878;55.748;48.742;2022-11-14T01:52:30;0.30;;;0.30;;
65279;SDS011;51878;55.748;48.742;2022-11-14T01:55:04;0.20;;;0.20;;
65279;SDS011;51878;55.748;48.742;2022-11-14T01:57:39;0.32;;;0.32;;
65279;SDS011;51878;55.748;48.742;2022-11-14T02:00:10;0.20;;;0.20;;
65279;SDS011;51878;55.748;48.742;2022-11-14T02:02:38;1.58;;;0.43;;
65279;SDS011;51878;55.748;48.742;2022-11-14T02:05:06;0.57;;;0.50;;
65279;SDS011;51878;55.748;48.742;2022-11-14T02:07:36;0.30;;;0.30;;
65279;SDS011;51878;55.748;48.742;2022-11-14T02:10:08;0.32;;;0.32;;
65279;SDS011;51878;55.748;48.742;2022-11-14T02:12:41;0.20;;;0.20;;
65279;SDS011;51878;55.748;48.742;2022-11-14T02:15:09;0.28;;;0.28;;
65279;SDS011;51878;55.748;48.742;2022-11-14T02:17:37;0.30;;;0.30;;
65279;SDS011;51878;55.748;48.742;2022-11-14T02:22:37;0.30;;;0.30;;
65279;SDS011;51878;55.748;48.742;2022-11-14T02:25:07;0.40;;;0.40;;
65279;SDS011;51878;55.748;48.742;2022-11-14T02:27:36;0.20;;;0.20;;
65279;SDS011;51878;55.748;48.742;2022-11-14T02:30:06;0.30;;;0.30;;
65279;SDS011;51878;55.748;48.742;2022-11-14T02:32:37;0.30;;;0.30;;
65279;SDS011;51878;55.748;48.742;2022-11-14T02:35:24;0.28;;;0.28;;
65279;SDS011;51878;55.748;48.742;2022-11-14T02:37:51;0.30;;;0.30;;
65279;SDS011;51878;55.748;48.742;2022-11-14T02:40:18;1.83;;;0.30;;
65279;SDS011;51878;55.748;48.742;2022-11-14T02:42:45;0.38;;;0.38;;
65279;SDS011;51878;55.748;48.742;2022-11-14T02:45:12;0.60;;;0.60;;
65279;SDS011;51878;55.748;48.742;2022-11-14T02:47:39;0.30;;;0.30;;
65279;SDS011;51878;55.748;48.742;2022-11-14T02:50:06;0.35;;;0.35;;
65279;SDS011;51878;55.748;48.742;2022-11-14T02:52:34;0.52;;;0.50;;
65279;SDS011;51878;55.748;48.742;2022-11-14T02:55:01;0.50;;;0.50;;
65279;SDS011;51878;55.748;48.742;2022-11-14T02:57:29;1.90;;;0.50;;
65279;SDS011;51878;55.748;48.742;2022-11-14T02:59:56;0.43;;;0.43;;
65279;SDS011;51878;55.748;48.742;2022-11-14T03:02:23;0.40;;;0.40;;
65279;SDS011;51878;55.748;48.742;2022-11-14T03:04:51;0.43;;;0.43;;
65279;SDS011;51878;55.748;48.742;2022-11-14T03:07:18;0.55;;;0.55;;
65279;SDS011;51878;55.748;48.742;2022-11-14T03:09:45;0.47;;;0.47;;
65279;SDS011;51878;55.748;48.742;2022-11-14T03:12:16;0.77;;;0.77;;
65279;SDS011;51878;55.748;48.742;2022-11-14T03:14:44;0.63;;;0.63;;
65279;SDS011;51878;55.748;48.742;2022-11-14T03:17:11;0.50;;;0.50;;
65279;SDS011;51878;55.748;48.742;2022-11-14T03:19:38;0.60;;;0.60;;
65279;SDS011;51878;55.748;48.742;2022-11-14T03:22:05;0.50;;;0.50;;
65279;SDS011;51878;55.748;48.742;2022-11-14T03:24:32;0.40;;;0.40;;
65279;SDS011;51878;55.748;48.742;2022-11-14T03:26:59;0.50;;;0.50;;
65279;SDS011;51878;55.748;48.742;2022-11-14T03:29:26;0.60;;;0.60;;
65279;SDS011;51878;55.748;48.742;2022-11-14T03:31:53;0.60;;;0.60;;
65279;SDS011;51878;55.748;48.742;2022-11-14T03:34:20;0.63;;;0.60;;
65279;SDS011;51878;55.748;48.742;2022-11-14T03:36:47;0.60;;;0.60;;
65279;SDS011;51878;55.748;48.742;2022-11-14T03:39:14;0.88;;;0.88;;
65279;SDS011;51878;55.748;48.742;2022-11-14T03:41:41;0.45;;;0.45;;
65279;SDS011;51878;55.748;48.742;2022-11-14T03:44:09;0.60;;;0.60;;
65279;SDS011;51878;55.748;48.742;2022-11-14T03:46:36;0.65;;;0.65;;
65279;SDS011;51878;55.748;48.742;2022-11-14T03:49:03;0.50;;;0.50;;
65279;SDS011;51878;55.748;48.742;2022-11-14T03:51:30;0.57;;;0.57;;
65279;SDS011;51878;55.748;48.742;2022-11-14T03:53:57;0.70;;;0.70;;
65279;SDS011;51878;55.748;48.742;2022-11-14T03:56:24;0.68;;;0.68;;
65279;SDS011;51878;55.748;48.742;2022-11-14T03:58:51;0.70;;;0.70;;
65279;SDS011;51878;55.748;48.742;2022-11-14T04:01:18;0.77;;;0.75;;
65279;SDS011;51878;55.748;48.742;2022-11-14T04:03:45;1.02;;;0.90;;
65279;SDS011;51878;55.748;48.742;2022-11-14T04:06:12;0.60;;;0.60;;
65279;SDS011;51878;55.748;48.742;2022-11-14T04:08:40;0.70;;;0.70;;
65279;SDS011;51878;55.748;48.742;2022-11-14T04:11:07;0.50;;;0.50;;
65279;SDS011;51878;55.748;48.742;2022-11-14T04:13:34;9.55;;;1.00;;
65279;SDS011;51878;55.748;48.742;2022-11-14T04:16:02;1.02;;;0.90;;
65279;SDS011;51878;55.748;48.742;2022-11-14T04:18:29;0.65;;;0.65;;
65279;SDS011;51878;55.748;48.742;2022-11-14T04:20:56;3.35;;;0.75;;
65279;SDS011;51878;55.748;48.742;2022-11-14T04:23:23;0.70;;;0.70;;
65279;SDS011;51878;55.748;48.742;2022-11-14T04:25:50;0.70;;;0.65;;
65279;SDS011;51878;55.748;48.742;2022-11-14T04:28:17;0.50;;;0.50;;
65279;SDS011;51878;55.748;48.742;2022-11-14T04:30:44;0.80;;;0.80;;
65279;SDS011;51878;55.748;48.742;2022-11-14T04:33:11;0.77;;;0.77;;
65279;SDS011;51878;55.748;48.742;2022-11-14T04:35:38;0.65;;;0.65;;
65279;SDS011;51878;55.748;48.742;2022-11-14T04:38:08;0.50;;;0.50;;
65279;SDS011;51878;55.748;48.742;2022-11-14T04:40:35;0.80;;;0.47;;
65279;SDS011;51878;55.748;48.742;2022-11-14T04:43:02;0.50;;;0.50;;
65279;SDS011;51878;55.748;48.742;2022-11-14T04:45:29;0.52;;;0.40;;
65279;SDS011;51878;55.748;48.742;2022-11-14T04:47:56;0.32;;;0.30;;
65279;SDS011;51878;55.748;48.742;2022-11-14T04:50:23;0.88;;;0.40;;
65279;SDS011;51878;55.748;48.742;2022-11-14T04:52:51;0.57;;;0.57;;
65279;SDS011;51878;55.748;48.742;2022-11-14T04:55:19;0.50;;;0.50;;
65279;SDS011;51878;55.748;48.742;2022-11-14T04:57:46;0.50;;;0.50;;
65279;SDS011;51878;55.748;48.742;2022-11-14T05:00:13;0.50;;;0.50;;
65279;SDS011;51878;55.748;48.742;2022-11-14T05:02:40;0.90;;;0.70;;
65279;SDS011;51878;55.748;48.742;2022-11-14T05:05:07;0.50;;;0.50;;
65279;SDS011;51878;55.748;48.742;2022-11-14T05:07:34;0.63;;;0.40;;
65279;SDS011;51878;55.748;48.742;2022-11-14T05:10:02;1.92;;;0.40;;
65279;SDS011;51878;55.748;48.742;2022-11-14T05:12:30;0.40;;;0.40;;
65279;SDS011;51878;55.748;48.742;2022-11-14T05:14:57;0.30;;;0.30;;
65279;SDS011;51878;55.748;48.742;2022-11-14T05:17:24;0.22;;;0.22;;
65279;SDS011;51878;55.748;48.742;2022-11-14T05:19:51;0.40;;;0.40;;
65279;SDS011;51878;55.748;48.742;2022-11-14T05:22:18;0.47;;;0.47;;
65279;SDS011;51878;55.748;48.742;2022-11-14T05:24:45;0.30;;;0.30;;
65279;SDS011;51878;55.748;48.742;2022-11-14T05:27:12;0.22;;;0.22;;
65279;SDS011;51878;55.748;48.742;2022-11-14T05:29:39;0.47;;;0.47;;
65279;SDS011;51878;55.748;48.742;2022-11-14T05:32:06;0.30;;;0.25;;
65279;SDS011;51878;55.748;48.742;2022-11-14T05:34:37;0.40;;;0.40;;
65279;SDS011;51878;55.748;48.742;2022-11-14T05:37:04;0.40;;;0.30;;
65279;SDS011;51878;55.748;48.742;2022-11-14T05:39:31;0.55;;;0.55;;
65279;SDS011;51878;55.748;48.742;2022-11-14T05:41:58;0.50;;;0.50;;
65279;SDS011;51878;55.748;48.742;2022-11-14T05:44:25;0.35;;;0.32;;
65279;SDS011;51878;55.748;48.742;2022-11-14T05:46:52;1.38;;;0.40;;
65279;SDS011;51878;55.748;48.742;2022-11-14T05:49:19;0.43;;;0.43;;
65279;SDS011;51878;55.748;48.742;2022-11-14T05:51:47;0.32;;;0.32;;
65279;SDS011;51878;55.748;48.742;2022-11-14T05:54:14;0.40;;;0.40;;
65279;SDS011;51878;55.748;48.742;2022-11-14T05:56:41;1.52;;;0.70;;
65279;SDS011;51878;55.748;48.742;2022-11-14T05:59:08;0.47;;;0.47;;
65279;SDS011;51878;55.748;48.742;2022-11-14T06:01:35;0.30;;;0.30;;
65279;SDS011;51878;55.748;48.742;2022-11-14T06:04:04;1.00;;;0.60;;
65279;SDS011;51878;55.748;48.742;2022-11-14T06:06:32;0.75;;;0.75;;
65279;SDS011;51878;55.748;48.742;2022-11-14T06:08:59;0.38;;;0.38;;
65279;SDS011;51878;55.748;48.742;2022-11-14T06:11:26;0.38;;;0.38;;
65279;SDS011;51878;55.748;48.742;2022-11-14T06:13:53;0.80;;;0.55;;
65279;SDS011;51878;55.748;48.742;2022-11-14T06:16:20;5.07;;;0.57;;
65279;SDS011;51878;55.748;48.742;2022-11-14T06:18:47;11.80;;;0.73;;
65279;SDS011;51878;55.748;48.742;2022-11-14T06:21:15;0.47;;;0.40;;
65279;SDS011;51878;55.748;48.742;2022-11-14T06:23:45;0.95;;;0.43;;
65279;SDS011;51878;55.748;48.742;2022-11-14T06:26:23;0.50;;;0.50;;
65279;SDS011;51878;55.748;48.742;2022-11-14T06:28:51;0.40;;;0.40;;
65279;SDS011;51878;55.748;48.742;2022-11-14T06:31:19;0.70;;;0.30;;
65279;SDS011;51878;55.748;48.742;2022-11-14T06:33:47;0.73;;;0.73;;
65279;SDS011;51878;55.748;48.742;2022-11-14T06:36:14;1.15;;;0.43;;
65279;SDS011;51878;55.748;48.742;2022-11-14T06:38:41;0.60;;;0.60;;
65279;SDS011;51878;55.748;48.742;2022-11-14T06:41:10;0.60;;;0.60;;
65279;SDS011;51878;55.748;48.742;2022-11-14T06:43:38;1.13;;;0.77;;
65279;SDS011;51878;55.748;48.742;2022-11-14T06:46:07;0.65;;;0.65;;
65279;SDS011;51878;55.748;48.742;2022-11-14T06:48:35;0.20;;;0.20;;
65279;SDS011;51878;55.748;48.742;2022-11-14T06:51:03;0.40;;;0.40;;
65279;SDS011;51878;55.748;48.742;2022-11-14T06:53:31;1.55;;;0.60;;
65279;SDS011;51878;55.748;48.742;2022-11-14T06:56:00;0.95;;;0.70;;
65279;SDS011;51878;55.748;48.742;2022-11-14T06:58:30;0.40;;;0.40;;
65279;SDS011;51878;55.748;48.742;2022-11-14T07:01:12;0.60;;;0.60;;
65279;SDS011;51878;55.748;48.742;2022-11-14T07:03:41;0.90;;;0.63;;
65279;SDS011;51878;55.748;48.742;2022-11-14T07:06:11;0.50;;;0.50;;
65279;SDS011;51878;55.748;48.742;2022-11-14T07:08:40;3.45;;;0.60;;
65279;SDS011;51878;55.748;48.742;2022-11-14T07:11:09;0.77;;;0.77;;
65279;SDS011;51878;55.748;48.742;2022-11-14T07:13:51;0.50;;;0.50;;
65279;SDS011;51878;55.748;48.742;2022-11-14T07:16:27;1.00;;;0.55;;
65279;SDS011;51878;55.748;48.742;2022-11-14T07:18:56;0.88;;;0.55;;
65279;SDS011;51878;55.748;48.742;2022-11-14T07:21:24;0.45;;;0.43;;
65279;SDS011;51878;55.748;48.742;2022-11-14T07:23:53;0.40;;;0.40;;
65279;SDS011;51878;55.748;48.742;2022-11-14T07:26:20;0.73;;;0.70;;
65279;SDS011;51878;55.748;48.742;2022-11-14T07:28:48;2.92;;;0.60;;
65279;SDS011;51878;55.748;48.742;2022-11-14T07:31:19;0.38;;;0.38;;
65279;SDS011;51878;55.748;48.742;2022-11-14T07:33:46;3.03;;;0.40;;
65279;SDS011;51878;55.748;48.742;2022-11-14T07:36:14;0.40;;;0.40;;
65279;SDS011;51878;55.748;48.742;2022-11-14T07:38:42;0.43;;;0.43;;
65279;SDS011;51878;55.748;48.742;2022-11-14T07:41:10;0.43;;;0.43;;
65279;SDS011;51878;55.748;48.742;2022-11-14T07:43:39;0.40;;;0.40;;
65279;SDS011;51878;55.748;48.742;2022-11-14T07:46:07;0.75;;;0.50;;
65279;SDS011;51878;55.748;48.742;2022-11-14T07:48:38;1.85;;;0.45;;
65279;SDS011;51878;55.748;48.742;2022-11-14T07:51:06;0.63;;;0.50;;
65279;SDS011;51878;55.748;48.742;2022-11-14T07:53:35;0.60;;;0.60;;
65279;SDS011;51878;55.748;48.742;2022-11-14T07:56:03;3.20;;;0.73;;
65279;SDS011;51878;55.748;48.742;2022-11-14T07:58:33;0.57;;;0.55;;
65279;SDS011;51878;55.748;48.742;2022-11-14T08:01:02;0.60;;;0.60;;
65279;SDS011;51878;55.748;48.742;2022-11-14T08:03:30;0.60;;;0.60;;
65279;SDS011;51878;55.748;48.742;2022-11-14T08:06:05;1.17;;;0.60;;
65279;SDS011;51878;55.748;48.742;2022-11-14T08:08:33;0.73;;;0.73;;
65279;SDS011;51878;55.748;48.742;2022-11-14T08:11:01;1.08;;;0.82;;
65279;SDS011;51878;55.748;48.742;2022-11-14T08:13:28;1.75;;;0.52;;
65279;SDS011;51878;55.748;48.742;2022-11-14T08:15:58;0.40;;;0.40;;
65279;SDS011;51878;55.748;48.742;2022-11-14T08:18:32;0.50;;;0.50;;
65279;SDS011;51878;55.748;48.742;2022-11-14T08:21:02;0.70;;;0.70;;
65279;SDS011;51878;55.748;48.742;2022-11-14T08:23:29;0.80;;;0.80;;
65279;SDS011;51878;55.748;48.742;2022-11-14T08:25:57;1.92;;;1.00;;
65279;SDS011;51878;55.748;48.742;2022-11-14T08:28:25;5.88;;;0.60;;
65279;SDS011;51878;55.748;48.742;2022-11-14T08:30:57;0.68;;;0.60;;
65279;SDS011;51878;55.748;48.742;2022-11-14T08:33:25;1.50;;;0.90;;
65279;SDS011;51878;55.748;48.742;2022-11-14T08:35:52;0.75;;;0.75;;
65279;SDS011;51878;55.748;48.742;2022-11-14T08:38:19;3.80;;;0.90;;
65279;SDS011;51878;55.748;48.742;2022-11-14T08:40:46;0.60;;;0.60;;
65279;SDS011;51878;55.748;48.742;2022-11-14T08:43:13;1.70;;;1.05;;
65279;SDS011;51878;55.748;48.742;2022-11-14T08:45:40;1.00;;;0.98;;
65279;SDS011;51878;55.748;48.742;2022-11-14T08:48:08;2.22;;;0.82;;
65279;SDS011;51878;55.748;48.742;2022-11-14T08:50:35;1.33;;;0.82;;
65279;SDS011;51878;55.748;48.742;2022-11-14T08:53:02;0.98;;;0.90;;
65279;SDS011;51878;55.748;48.742;2022-11-14T08:55:29;0.80;;;0.80;;
65279;SDS011;51878;55.748;48.742;2022-11-14T08:57:57;1.15;;;0.95;;
65279;SDS011;51878;55.748;48.742;2022-11-14T09:00:24;0.93;;;0.93;;
65279;SDS011;51878;55.748;48.742;2022-11-14T09:02:51;0.77;;;0.77;;
65279;SDS011;51878;55.748;48.742;2022-11-14T09:05:20;0.88;;;0.88;;
65279;SDS011;51878;55.748;48.742;2022-11-14T09:07:47;3.63;;;0.93;;
65279;SDS011;51878;55.748;48.742;2022-11-14T09:10:14;0.93;;;0.90;;
65279;SDS011;51878;55.748;48.742;2022-11-14T09:12:41;1.05;;;0.98;;
65279;SDS011;51878;55.748;48.742;2022-11-14T09:15:08;0.93;;;0.90;;
65279;SDS011;51878;55.748;48.742;2022-11-14T09:17:35;0.90;;;0.90;;
65279;SDS011;51878;55.748;48.742;2022-11-14T09:20:03;9.77;;;1.10;;
65279;SDS011;51878;55.748;48.742;2022-11-14T09:22:30;0.90;;;0.90;;
65279;SDS011;51878;55.748;48.742;2022-11-14T09:24:57;0.85;;;0.82;;
65279;SDS011;51878;55.748;48.742;2022-11-14T09:27:25;0.90;;;0.82;;
65279;SDS011;51878;55.748;48.742;2022-11-14T09:29:53;2.28;;;1.20;;
65279;SDS011;51878;55.748;48.742;2022-11-14T09:32:20;0.90;;;0.90;;
65279;SDS011;51878;55.748;48.742;2022-11-14T09:34:47;8.60;;;1.02;;
65279;SDS011;51878;55.748;48.742;2022-11-14T09:37:15;1.25;;;1.10;;
65279;SDS011;51878;55.748;48.742;2022-11-14T09:39:42;0.77;;;0.77;;
65279;SDS011;51878;55.748;48.742;2022-11-14T09:42:26;0.70;;;0.68;;
65279;SDS011;51878;55.748;48.742;2022-11-14T09:45:03;4.13;;;1.08;;
65279;SDS011;51878;55.748;48.742;2022-11-14T09:47:38;0.80;;;0.80;;
65279;SDS011;51878;55.748;48.742;2022-11-14T09:50:21;1.63;;;0.80;;
65279;SDS011;51878;55.748;48.742;2022-11-14T09:52:57;0.85;;;0.70;;
65279;SDS011;51878;55.748;48.742;2022-11-14T09:55:29;0.80;;;0.80;;
65279;SDS011;51878;55.748;48.742;2022-11-14T09:58:02;0.82;;;0.80;;
65279;SDS011;51878;55.748;48.742;2022-11-14T10:01:17;0.80;;;0.60;;
65279;SDS011;51878;55.748;48.742;2022-11-14T10:03:24;0.65;;;0.65;;
65279;SDS011;51878;55.748;48.742;2022-11-14T10:06:02;0.80;;;0.80;;
65279;SDS011;51878;55.748;48.742;2022-11-14T10:11:16;0.80;;;0.80;;
65279;SDS011;51878;55.748;48.742;2022-11-14T10:20:17;0.63;;;0.63;;
65279;SDS011;51878;55.748;48.742;2022-11-14T10:28:20;0.60;;;0.60;;
65279;SDS011;51878;55.748;48.742;2022-11-14T10:36:47;0.75;;;0.50;;
65279;SDS011;51878;55.748;48.742;2022-11-14T10:39:40;0.60;;;0.55;;
65279;SDS011;51878;55.748;48.742;2022-11-14T10:42:13;0.43;;;0.43;;
65279;SDS011;51878;55.748;48.742;2022-11-14T10:44:49;0.50;;;0.50;;
65279;SDS011;51878;55.748;48.742;2022-11-14T10:47:28;1.75;;;0.70;;
65279;SDS011;51878;55.748;48.742;2022-11-14T10:50:10;0.47;;;0.47;;
65279;SDS011;51878;55.748;48.742;2022-11-14T10:52:45;1.05;;;0.50;;
65279;SDS011;51878;55.748;48.742;2022-11-14T10:55:15;1.52;;;0.93;;
65279;SDS011;51878;55.748;48.742;2022-11-14T10:57:46;3.45;;;0.80;;
65279;SDS011;51878;55.748;48.742;2022-11-14T11:00:15;0.80;;;0.80;;
65279;SDS011;51878;55.748;48.742;2022-11-14T11:03:03;0.40;;;0.40;;
65279;SDS011;51878;55.748;48.742;2022-11-14T11:08:23;0.40;;;0.40;;
65279;SDS011;51878;55.748;48.742;2022-11-14T11:14:32;0.60;;;0.60;;
65279;SDS011;51878;55.748;48.742;2022-11-14T11:17:56;1.95;;;0.68;;
65279;SDS011;51878;55.748;48.742;2022-11-14T11:25:30;1.08;;;0.60;;
65279;SDS011;51878;55.748;48.742;2022-11-14T11:30:55;0.55;;;0.55;;
65279;SDS011;51878;55.748;48.742;2022-11-14T11:33:24;0.70;;;0.70;;
65279;SDS011;51878;55.748;48.742;2022-11-14T11:35:54;0.68;;;0.68;;
65279;SDS011;51878;55.748;48.742;2022-11-14T11:38:27;0.52;;;0.52;;
65279;SDS011;51878;55.748;48.742;2022-11-14T11:41:05;4.00;;;0.65;;
65279;SDS011;51878;55.748;48.742;2022-11-14T11:44:13;0.35;;;0.35;;
65279;SDS011;51878;55.748;48.742;2022-11-14T11:51:55;0.43;;;0.43;;
65279;SDS011;51878;55.748;48.742;2022-11-14T11:54:32;2.58;;;0.60;;
65279;SDS011;51878;55.748;48.742;2022-11-14T11:57:12;4.60;;;0.60;;
65279;SDS011;51878;55.748;48.742;2022-11-14T11:59:51;1.83;;;0.50;;
65279;SDS011;51878;55.748;48.742;2022-11-14T12:02:25;0.65;;;0.65;;
65279;SDS011;51878;55.748;48.742;2022-11-14T12:04:53;3.40;;;0.60;;
65279;SDS011;51878;55.748;48.742;2022-11-14T12:09:58;0.98;;;0.35;;
65279;SDS011;51878;55.748;48.742;2022-11-14T12:18:24;1.27;;;0.57;;
65279;SDS011;51878;55.748;48.742;2022-11-14T12:29:16;3.22;;;0.85;;
65279;SDS011;51878;55.748;48.742;2022-11-14T12:31:55;1.75;;;0.70;;
65279;SDS011;51878;55.748;48.742;2022-11-14T12:34:30;0.63;;;0.47;;
65279;SDS011;51878;55.748;48.742;2022-11-14T12:39:58;1.25;;;0.70;;
65279;SDS011;51878;55.748;48.742;2022-11-14T12:42:29;1.33;;;0.80;;
65279;SDS011;51878;55.748;48.742;2022-11-14T12:44:58;1.13;;;0.88;;
65279;SDS011;51878;55.748;48.742;2022-11-14T12:47:28;7.28;;;0.95;;
65279;SDS011;51878;55.748;48.742;2022-11-14T12:49:56;0.60;;;0.60;;
65279;SDS011;51878;55.748;48.742;2022-11-14T12:57:59;0.68;;;0.68;;
65279;SDS011;51878;55.748;48.742;2022-11-14T13:00:54;0.95;;;0.75;;
65279;SDS011;51878;55.748;48.742;2022-11-14T13:03:35;0.60;;;0.60;;
65279;SDS011;51878;55.748;48.742;2022-11-14T13:06:12;0.70;;;0.70;;
65279;SDS011;51878;55.748;48.742;2022-11-14T13:11:42;0.60;;;0.60;;
65279;SDS011;51878;55.748;48.742;2022-11-14T13:14:29;1.05;;;0.98;;
65279;SDS011;51878;55.748;48.742;2022-11-14T13:20:05;1.25;;;0.80;;
65279;SDS011;51878;55.748;48.742;2022-11-14T13:23:58;1.08;;;0.77;;
65279;SDS011;51878;55.748;48.742;2022-11-14T13:28:48;0.60;;;0.60;;
65279;SDS011;51878;55.748;48.742;2022-11-14T13:31:18;0.98;;;0.77;;
65279;SDS011;51878;55.748;48.742;2022-11-14T13:33:49;1.40;;;0.85;;
65279;SDS011;51878;55.748;48.742;2022-11-14T13:50:54;0.57;;;0.57;;
65279;SDS011;51878;55.748;48.742;2022-11-14T13:53:40;3.33;;;0.70;;
65279;SDS011;51878;55.748;48.742;2022-11-14T14:04:20;0.55;;;0.55;;
65279;SDS011;51878;55.748;48.742;2022-11-14T14:07:05;0.80;;;0.80;;
65279;SDS011;51878;55.748;48.742;2022-11-14T14:15:35;1.35;;;1.25;;
65279;SDS011;51878;55.748;48.742;2022-11-14T14:23:00;0.70;;;0.70;;
65279;SDS011;51878;55.748;48.742;2022-11-14T14:28:27;2.17;;;0.90;;
65279;SDS011;51878;55.748;48.742;2022-11-14T14:32:14;3.15;;;0.95;;
65279;SDS011;51878;55.748;48.742;2022-11-14T14:34:58;1.27;;;1.05;;
65279;SDS011;51878;55.748;48.742;2022-11-14T14:37:53;0.75;;;0.75;;
65279;SDS011;51878;55.748;48.742;2022-11-14T14:40:54;1.00;;;0.90;;
65279;SDS011;51878;55.748;48.742;2022-11-14T14:43:32;13.70;;;1.10;;
65279;SDS011;51878;55.748;48.742;2022-11-14T14:54:20;1.05;;;0.65;;
65279;SDS011;51878;55.748;48.742;2022-11-14T14:57:02;0.60;;;0.60;;
65279;SDS011;51878;55.748;48.742;2022-11-14T15:03:55;0.90;;;0.80;;
65279;SDS011;51878;55.748;48.742;2022-11-14T15:07:31;2.58;;;0.80;;
65279;SDS011;51878;55.748;48.742;2022-11-14T15:10:17;3.05;;;0.70;;
65279;SDS011;51878;55.748;48.742;2022-11-14T15:13:51;1.40;;;0.65;;
65279;SDS011;51878;55.748;48.742;2022-11-14T15:16:30;0.50;;;0.50;;
65279;SDS011;51878;55.748;48.742;2022-11-14T15:23:41;2.13;;;0.85;;
65279;SDS011;51878;55.748;48.742;2022-11-14T15:27:23;1.33;;;1.23;;
65279;SDS011;51878;55.748;48.742;2022-11-14T15:30:18;3.15;;;1.17;;
65279;SDS011;51878;55.748;48.742;2022-11-14T15:40:34;2.85;;;1.10;;
65279;SDS011;51878;55.748;48.742;2022-11-14T15:46:56;0.85;;;0.80;;
65279;SDS011;51878;55.748;48.742;2022-11-14T15:50:01;6.47;;;0.90;;
65279;SDS011;51878;55.748;48.742;2022-11-14T16:00:23;2.47;;;1.08;;
65279;SDS011;51878;55.748;48.742;2022-11-14T16:03:51;5.03;;;1.15;;
65279;SDS011;51878;55.748;48.742;2022-11-14T16:07:12;0.98;;;0.93;;
65279;SDS011;51878;55.748;48.742;2022-11-14T16:10:31;1.98;;;1.13;;
65279;SDS011;51878;55.748;48.742;2022-11-14T16:13:14;1.60;;;1.20;;
65279;SDS011;51878;55.748;48.742;2022-11-14T16:16:22;0.60;;;0.60;;
65279;SDS011;51878;55.748;48.742;2022-11-14T16:18:50;1.40;;;1.10;;
65279;SDS011;51878;55.748;48.742;2022-11-14T16:21:35;1.60;;;0.80;;
65279;SDS011;51878;55.748;48.742;2022-11-14T16:24:20;1.27;;;0.88;;
65279;SDS011;51878;55.748;48.742;2022-11-14T16:27:07;3.75;;;1.10;;
65279;SDS011;51878;55.748;48.742;2022-11-14T16:29:40;1.50;;;0.88;;
65279;SDS011;51878;55.748;48.742;2022-11-14T16:32:09;1.95;;;1.08;;
65279;SDS011;51878;55.748;48.742;2022-11-14T16:34:59;0.95;;;0.88;;
65279;SDS011;51878;55.748;48.742;2022-11-14T16:37:29;0.63;;;0.63;;
65279;SDS011;51878;55.748;48.742;2022-11-14T16:40:15;1.02;;;0.90;;
65279;SDS011;51878;55.748;48.742;2022-11-14T16:42:57;3.80;;;1.05;;
65279;SDS011;51878;55.748;48.742;2022-11-14T16:45:32;3.28;;;0.98;;
65279;SDS011;51878;55.748;48.742;2022-11-14T16:48:05;1.08;;;0.85;;
65279;SDS011;51878;55.748;48.742;2022-11-14T16:50:36;1.15;;;0.80;;
65279;SDS011;51878;55.748;48.742;2022-11-14T16:53:03;3.30;;;0.93;;
65279;SDS011;51878;55.748;48.742;2022-11-14T16:55:33;0.45;;;0.45;;
65279;SDS011;51878;55.748;48.742;2022-11-14T16:58:00;1.48;;;1.30;;
65279;SDS011;51878;55.748;48.742;2022-11-14T17:00:27;1.83;;;0.95;;
65279;SDS011;51878;55.748;48.742;2022-11-14T17:02:54;2.40;;;1.05;;
65279;SDS011;51878;55.748;48.742;2022-11-14T17:05:28;0.93;;;0.77;;
65279;SDS011;51878;55.748;48.742;2022-11-14T17:07:55;3.55;;;1.05;;
65279;SDS011;51878;55.748;48.742;2022-11-14T17:10:22;7.03;;;0.57;;
65279;SDS011;51878;55.748;48.742;2022-11-14T17:12:50;1.08;;;0.98;;
65279;SDS011;51878;55.748;48.742;2022-11-14T17:15:20;1.02;;;0.80;;
65279;SDS011;51878;55.748;48.742;2022-11-14T17:17:48;0.60;;;0.60;;
65279;SDS011;51878;55.748;48.742;2022-11-14T17:20:18;4.30;;;0.90;;
65279;SDS011;51878;55.748;48.742;2022-11-14T17:22:45;2.38;;;0.80;;
65279;SDS011;51878;55.748;48.742;2022-11-14T17:25:12;1.80;;;0.95;;
65279;SDS011;51878;55.748;48.742;2022-11-14T17:27:39;2.05;;;0.70;;
65279;SDS011;51878;55.748;48.742;2022-11-14T17:30:11;0.60;;;0.60;;
65279;SDS011;51878;55.748;48.742;2022-11-14T17:32:39;1.33;;;0.82;;